createdAt,value
2017-02-02T13:58:09.564Z,1001.3
2017-02-02T13:59:18.653Z,1001.14
2017-02-02T14:00:27.341Z,1001.25
2017-02-02T14:01:36.053Z,1001.2
2017-02-02T14:02:44.755Z,1001.2
2017-02-02T14:03:53.966Z,1001.26
2017-02-02T14:05:02.674Z,1001.2
2017-02-02T14:06:11.389Z,1001.16
2017-02-02T14:07:20.183Z,1001.13
2017-02-02T14:08:29.223Z,1001.18
2017-02-02T14:09:38.023Z,1001.16
2017-02-02T14:10:47.404Z,1001.14
2017-02-02T14:11:56.967Z,1001.1
2017-02-02T14:13:06.543Z,1001.06
2017-02-02T14:14:15.626Z,1001.06
2017-02-02T14:15:24.709Z,1000.99
2017-02-02T14:16:34.186Z,1001.02
2017-02-02T14:17:42.893Z,1000.99
2017-02-02T14:18:51.613Z,1000.98
2017-02-02T14:20:00.307Z,1001.03
2017-02-02T14:21:09.008Z,1001
2017-02-02T14:22:18.130Z,1000.97
2017-02-02T14:23:26.831Z,1000.95
2017-02-02T14:24:35.930Z,1000.96
2017-02-02T14:25:44.636Z,1000.89
2017-02-02T14:26:53.341Z,1000.9
2017-02-02T14:28:02.054Z,1000.9
2017-02-02T14:29:10.747Z,1000.89
2017-02-02T14:30:20.241Z,1000.88
2017-02-02T14:31:28.960Z,1000.87
2017-02-02T14:32:37.845Z,1000.85
2017-02-02T14:33:46.611Z,1000.87
2017-02-02T14:34:55.322Z,1000.88
2017-02-02T14:36:04.449Z,1000.88
2017-02-02T14:37:13.562Z,1000.9
2017-02-02T14:38:22.310Z,1000.83
2017-02-02T14:39:31.006Z,1000.87
2017-02-02T14:40:39.707Z,1000.84
2017-02-02T14:41:48.423Z,1000.86
2017-02-02T14:42:57.120Z,1000.87
2017-02-02T14:44:06.232Z,1000.88
2017-02-02T14:45:14.934Z,1000.87
2017-02-02T14:46:23.625Z,1000.86
2017-02-02T14:47:32.739Z,1000.81
2017-02-02T14:48:41.446Z,1000.81
2017-02-02T14:49:50.931Z,1000.78
2017-02-02T14:50:59.638Z,1000.83
2017-02-02T14:52:08.354Z,1000.78
2017-02-02T14:53:17.043Z,1000.75
2017-02-02T14:54:25.749Z,1000.77
2017-02-02T14:55:34.456Z,1000.76
2017-02-02T14:56:43.550Z,1000.74
2017-02-02T14:57:52.250Z,1000.77
2017-02-02T14:59:01.362Z,1000.72
2017-02-02T15:00:10.053Z,1000.71
2017-02-02T15:01:18.747Z,1000.65
2017-02-02T15:02:27.465Z,1000.64
2017-02-02T15:03:36.566Z,1000.64
2017-02-02T15:04:45.650Z,1000.61
2017-02-02T15:05:54.766Z,1000.59
2017-02-02T15:07:03.478Z,1000.6
2017-02-02T15:08:12.173Z,1000.61
2017-02-02T15:09:21.275Z,1000.61
2017-02-02T15:10:30.377Z,1000.58
2017-02-02T15:11:39.075Z,1000.59
2017-02-02T15:12:47.776Z,1000.6
2017-02-02T15:13:56.465Z,1000.58
2017-02-02T15:15:05.182Z,1000.55
2017-02-02T15:16:13.888Z,1000.56
2017-02-02T15:17:22.577Z,1000.56
2017-02-02T15:18:31.274Z,1000.57
2017-02-02T15:19:39.985Z,1000.57
2017-02-02T15:20:48.665Z,1000.57
2017-02-02T15:21:57.371Z,1000.54
2017-02-02T15:23:06.476Z,1000.56
2017-02-02T15:24:15.682Z,1000.5
2017-02-02T15:25:24.779Z,1000.49
2017-02-02T15:26:33.512Z,1000.5
2017-02-02T15:27:42.219Z,1000.51
2017-02-02T15:28:51.319Z,1000.49
2017-02-02T15:30:00.403Z,1000.54
2017-02-02T15:31:09.111Z,1000.53
2017-02-02T15:32:17.821Z,1000.52
2017-02-02T15:33:26.908Z,1000.53
2017-02-02T15:34:35.601Z,1000.52
2017-02-02T15:35:44.723Z,1000.51
2017-02-02T15:36:53.827Z,1000.49
2017-02-02T15:38:02.924Z,1000.5
2017-02-02T15:39:11.635Z,1000.48
2017-02-02T15:40:20.732Z,1000.49
2017-02-02T15:41:29.441Z,1000.46
2017-02-02T15:42:38.586Z,1000.46
2017-02-02T15:43:47.290Z,1000.44
2017-02-02T15:44:56.403Z,1000.45
2017-02-02T15:46:05.097Z,1000.41
2017-02-02T15:47:13.801Z,1000.43
2017-02-02T15:48:22.516Z,1000.42
2017-02-02T15:49:31.219Z,1000.41
2017-02-02T15:50:39.901Z,1000.42
2017-02-02T15:51:48.614Z,1000.45
2017-02-02T15:52:57.314Z,1000.4
2017-02-02T15:54:06.015Z,1000.38
2017-02-02T15:55:14.731Z,1000.39
2017-02-02T15:56:23.426Z,1000.37
2017-02-02T15:57:32.139Z,1000.37
2017-02-02T15:58:41.242Z,1000.34
2017-02-02T15:59:49.930Z,1000.33
2017-02-02T16:00:58.646Z,1000.3
2017-02-02T16:02:07.350Z,1000.32
2017-02-02T16:03:16.426Z,1000.33
2017-02-02T16:04:25.528Z,1000.32
2017-02-02T16:05:34.239Z,1000.28
2017-02-02T16:06:43.329Z,1000.26
2017-02-02T16:07:52.039Z,1000.26
2017-02-02T16:09:01.549Z,1000.27
2017-02-02T16:10:10.648Z,1000.26
2017-02-02T16:11:19.350Z,1000.26
2017-02-02T16:12:28.047Z,1000.28
2017-02-02T16:13:36.753Z,1000.23
2017-02-02T16:14:45.464Z,1000.27
2017-02-02T16:15:54.143Z,1000.31
2017-02-02T16:17:03.260Z,1000.3
2017-02-02T16:18:11.972Z,1000.32
2017-02-02T16:19:20.667Z,1000.29
2017-02-02T16:20:29.759Z,1000.32
2017-02-02T16:21:38.864Z,1000.29
2017-02-02T16:22:47.546Z,1000.34
2017-02-02T16:23:56.239Z,1000.3
2017-02-02T16:25:04.940Z,1000.27
2017-02-02T16:26:14.042Z,1000.29
2017-02-02T16:27:22.747Z,1000.31
2017-02-02T16:28:31.438Z,1000.29
2017-02-02T16:29:40.524Z,1000.29
2017-02-02T16:30:49.244Z,1000.26
2017-02-02T16:31:58.366Z,1000.26
2017-02-02T16:33:07.462Z,1000.3
2017-02-02T16:34:16.171Z,1000.28
2017-02-02T16:35:24.875Z,1000.25
2017-02-02T16:36:33.572Z,1000.29
2017-02-02T16:37:42.673Z,1000.28
2017-02-02T16:38:51.383Z,1000.3
2017-02-02T16:40:00.865Z,1000.3
2017-02-02T16:41:09.556Z,1000.34
2017-02-02T16:42:18.254Z,1000.35
2017-02-02T16:43:26.969Z,1000.35
2017-02-02T16:44:35.673Z,1000.37
2017-02-02T16:45:44.351Z,1000.38
2017-02-02T16:46:53.467Z,1000.39
2017-02-02T16:48:02.575Z,1000.36
2017-02-02T16:49:11.268Z,1000.36
2017-02-02T16:50:19.980Z,1000.41
2017-02-02T16:51:29.099Z,1000.39
2017-02-02T16:52:37.786Z,1000.42
2017-02-02T16:53:46.887Z,1000.4
2017-02-02T16:54:55.592Z,1000.45
2017-02-02T16:56:04.684Z,1000.44
2017-02-02T16:57:13.388Z,1000.41
2017-02-02T16:58:22.504Z,1000.41
2017-02-02T16:59:31.590Z,1000.42
2017-02-02T17:00:40.277Z,1000.42
2017-02-02T17:01:48.995Z,1000.41
2017-02-02T17:02:58.089Z,1000.4
2017-02-02T17:04:06.786Z,1000.44
2017-02-02T17:05:15.903Z,1000.45
2017-02-02T17:06:24.604Z,1000.43
2017-02-02T17:07:33.289Z,1000.42
2017-02-02T17:08:41.995Z,1000.45
2017-02-02T17:09:50.697Z,1000.41
2017-02-02T17:10:59.798Z,1000.4
2017-02-02T17:12:08.504Z,1000.36
2017-02-02T17:13:17.187Z,1000.41
2017-02-02T17:14:25.905Z,1000.39
2017-02-02T17:15:34.614Z,1000.37
2017-02-02T17:16:43.302Z,1000.38
2017-02-02T17:17:52.004Z,1000.38
2017-02-02T17:19:00.713Z,1000.37
2017-02-02T17:20:09.401Z,1000.34
2017-02-02T17:21:18.109Z,1000.36
2017-02-02T17:22:27.216Z,1000.38
2017-02-02T17:23:35.910Z,1000.39
2017-02-02T17:24:44.997Z,1000.41
2017-02-02T17:25:53.695Z,1000.4
2017-02-02T17:27:02.403Z,1000.42
2017-02-02T17:28:11.115Z,1000.44
2017-02-02T17:29:19.798Z,1000.46
2017-02-02T17:30:28.494Z,1000.49
2017-02-02T17:31:37.215Z,1000.52
2017-02-02T17:32:46.295Z,1000.51
2017-02-02T17:33:55.000Z,1000.49
2017-02-02T17:35:04.111Z,1000.46
2017-02-02T17:36:13.205Z,1000.45
2017-02-02T17:37:22.294Z,1000.42
2017-02-02T17:38:31.410Z,1000.38
2017-02-02T17:39:40.118Z,1000.36
2017-02-02T17:40:48.827Z,1000.39
2017-02-02T17:41:57.914Z,1000.39
2017-02-02T17:43:06.612Z,1000.36
2017-02-02T17:44:15.325Z,1000.37
2017-02-02T17:45:24.023Z,1000.42
2017-02-02T17:46:32.713Z,1000.41
2017-02-02T17:47:41.422Z,1000.39
2017-02-02T17:48:50.117Z,1000.38
2017-02-02T17:49:58.806Z,1000.37
2017-02-02T17:51:07.512Z,1000.38
2017-02-02T17:52:16.606Z,1000.36
2017-02-02T17:53:25.305Z,1000.43
2017-02-02T17:54:34.008Z,1000.42
2017-02-02T17:55:42.710Z,1000.43
2017-02-02T17:56:51.397Z,1000.43
2017-02-02T17:58:00.512Z,1000.43
2017-02-02T17:59:09.230Z,1000.38
2017-02-02T18:00:18.307Z,1000.42
2017-02-02T18:01:27.004Z,1000.41
2017-02-02T18:02:35.718Z,1000.41
2017-02-02T18:03:44.412Z,1000.4
2017-02-02T18:04:53.108Z,1000.4
2017-02-02T18:06:01.819Z,1000.4
2017-02-02T18:07:10.518Z,1000.4
2017-02-02T18:08:19.222Z,1000.42
2017-02-02T18:09:28.307Z,1000.43
2017-02-02T18:10:37.410Z,1000.44
2017-02-02T18:11:46.119Z,1000.46
2017-02-02T18:12:54.815Z,1000.44
2017-02-02T18:14:03.504Z,1000.45
2017-02-02T18:15:12.221Z,1000.44
2017-02-02T18:16:20.918Z,1000.41
2017-02-02T18:17:29.618Z,1000.42
2017-02-02T18:18:38.331Z,1000.39
2017-02-02T18:19:47.427Z,1000.4
2017-02-02T18:20:56.117Z,1000.38
2017-02-02T18:22:05.226Z,1000.36
2017-02-02T18:23:14.325Z,1000.35
2017-02-02T18:24:23.028Z,1000.4
2017-02-02T18:25:31.731Z,1000.37
2017-02-02T18:26:40.413Z,1000.4
2017-02-02T18:27:49.134Z,1000.42
2017-02-02T18:28:57.864Z,1000.39
2017-02-02T18:30:06.558Z,1000.43
2017-02-02T18:31:15.672Z,1000.4
2017-02-02T18:32:24.773Z,1000.42
2017-02-02T18:33:33.459Z,1000.41
2017-02-02T18:34:42.165Z,1000.42
2017-02-02T18:35:50.871Z,1000.41
2017-02-02T18:36:59.954Z,1000.38
2017-02-02T18:38:08.658Z,1000.4
2017-02-02T18:39:17.355Z,1000.38
2017-02-02T18:40:26.060Z,1000.39
2017-02-02T18:41:35.171Z,1000.38
2017-02-02T18:42:43.854Z,1000.4
2017-02-02T18:43:52.554Z,1000.36
2017-02-02T18:45:01.659Z,1000.34
2017-02-02T18:46:10.351Z,1000.32
2017-02-02T18:47:19.043Z,1000.31
2017-02-02T18:48:27.751Z,1000.34
2017-02-02T18:49:36.444Z,1000.29
2017-02-02T18:50:45.136Z,1000.25
2017-02-02T18:51:53.844Z,1000.25
2017-02-02T18:53:02.540Z,1000.23
2017-02-02T18:54:11.234Z,1000.23
2017-02-02T18:55:20.736Z,1000.21
2017-02-02T18:56:29.440Z,1000.2
2017-02-02T18:57:38.518Z,1000.17
2017-02-02T18:58:47.232Z,1000.17
2017-02-02T18:59:56.331Z,1000.15
2017-02-02T19:01:05.018Z,1000.19
2017-02-02T19:02:13.716Z,1000.13
2017-02-02T19:03:22.821Z,1000.15
2017-02-02T19:04:31.504Z,1000.17
2017-02-02T19:05:40.203Z,1000.16
2017-02-02T19:06:48.908Z,1000.16
2017-02-02T19:07:58.014Z,1000.17
2017-02-02T19:09:06.731Z,1000.19
2017-02-02T19:10:16.620Z,1000.21
2017-02-02T19:11:25.318Z,1000.21
2017-02-02T19:12:34.033Z,1000.23
2017-02-02T19:13:42.712Z,1000.25
2017-02-02T19:14:51.418Z,1000.22
2017-02-02T19:16:00.537Z,1000.27
2017-02-02T19:17:09.626Z,1000.23
2017-02-02T19:18:18.318Z,1000.26
2017-02-02T19:19:27.033Z,1000.25
2017-02-02T19:20:35.732Z,1000.2
2017-02-02T19:21:44.436Z,1000.22
2017-02-02T19:22:53.132Z,1000.22
2017-02-02T19:24:01.832Z,1000.23
2017-02-02T19:25:10.962Z,1000.22
2017-02-02T19:26:19.656Z,1000.22
2017-02-02T19:27:28.353Z,1000.18
2017-02-02T19:28:37.075Z,1000.17
2017-02-02T19:29:45.776Z,1000.17
2017-02-02T19:30:54.466Z,1000.17
2017-02-02T19:32:03.582Z,1000.21
2017-02-02T19:33:12.295Z,1000.19
2017-02-02T19:34:20.995Z,1000.17
2017-02-02T19:35:29.708Z,1000.18
2017-02-02T19:36:38.404Z,1000.17
2017-02-02T19:37:47.120Z,1000.16
2017-02-02T19:38:55.821Z,1000.14
2017-02-02T19:40:04.907Z,1000.12
2017-02-02T19:41:13.630Z,1000.09
2017-02-02T19:42:22.739Z,1000.09
2017-02-02T19:43:31.822Z,1000.06
2017-02-02T19:44:40.533Z,1000.02
2017-02-02T19:45:49.247Z,1000.02
2017-02-02T19:46:58.334Z,1000
2017-02-02T19:48:07.040Z,1000.01
2017-02-02T19:49:15.761Z,999.98
2017-02-02T19:50:24.452Z,1000
2017-02-02T19:51:33.164Z,1000.02
2017-02-02T19:52:42.253Z,1000.03
2017-02-02T19:53:51.388Z,1000.07
2017-02-02T19:55:00.630Z,1000.04
2017-02-02T19:56:09.324Z,1000.08
2017-02-02T19:57:18.026Z,1000.06
2017-02-02T19:58:26.737Z,1000.09
2017-02-02T19:59:35.424Z,1000.12
2017-02-02T20:00:44.126Z,1000.11
2017-02-02T20:01:52.909Z,1000.13
2017-02-02T20:03:01.606Z,1000.09
2017-02-02T20:04:10.339Z,1000.1
2017-02-02T20:05:19.039Z,1000.1
2017-02-02T20:06:27.772Z,1000.12
2017-02-02T20:07:36.509Z,1000.08
2017-02-02T20:08:45.186Z,1000.1
2017-02-02T20:09:54.284Z,1000.06
2017-02-02T20:11:02.997Z,1000.06
2017-02-02T20:12:11.703Z,1000.04
2017-02-02T20:13:20.503Z,1000.07
2017-02-02T20:14:29.629Z,1000.05
2017-02-02T20:15:38.394Z,1000.03
2017-02-02T20:16:47.572Z,999.99
2017-02-02T20:17:56.288Z,1000.06
2017-02-02T20:19:05.057Z,1000.02
2017-02-02T20:20:13.931Z,1000.03
2017-02-02T20:21:22.794Z,1000.01
2017-02-02T20:22:31.610Z,1000
2017-02-02T20:23:40.367Z,1000.02
2017-02-02T20:24:49.148Z,999.96
2017-02-02T20:25:57.847Z,999.94
2017-02-02T20:27:06.983Z,999.97
2017-02-02T20:28:15.694Z,999.97
2017-02-02T20:29:24.400Z,999.95
2017-02-02T20:30:33.590Z,999.92
2017-02-02T20:31:42.754Z,999.96
2017-02-02T20:32:52.317Z,999.92
2017-02-02T20:34:01.574Z,999.93
2017-02-02T20:35:10.392Z,999.89
2017-02-02T20:36:19.205Z,999.9
2017-02-02T20:37:28.087Z,999.87
2017-02-02T20:38:36.967Z,999.88
2017-02-02T20:39:46.275Z,999.89
2017-02-02T20:40:55.579Z,999.87
2017-02-02T20:42:04.423Z,999.85
2017-02-02T20:43:13.230Z,999.88
2017-02-02T20:44:22.115Z,999.83
2017-02-02T20:45:31.613Z,999.83
2017-02-02T20:46:40.391Z,999.8
2017-02-02T20:47:49.140Z,999.84
2017-02-02T20:48:57.905Z,999.85
2017-02-02T20:50:06.665Z,999.83
2017-02-02T20:51:15.851Z,999.8
2017-02-02T20:52:24.623Z,999.84
2017-02-02T20:53:34.343Z,999.85
2017-02-02T20:54:43.249Z,999.84
2017-02-02T20:55:52.128Z,999.84
2017-02-02T20:57:01.317Z,999.8
2017-02-02T20:58:10.568Z,999.8
2017-02-02T20:59:19.393Z,999.8
2017-02-02T21:00:28.260Z,999.78
2017-02-02T21:01:37.147Z,999.76
2017-02-02T21:02:45.971Z,999.75
2017-02-02T21:03:54.678Z,999.72
2017-02-02T21:05:03.436Z,999.73
2017-02-02T21:06:12.259Z,999.73
2017-02-02T21:07:21.156Z,999.74
2017-02-02T21:08:29.975Z,999.68
2017-02-02T21:09:39.245Z,999.7
2017-02-02T21:10:48.563Z,999.71
2017-02-02T21:11:57.384Z,999.65
2017-02-02T21:13:06.260Z,999.66
2017-02-02T21:14:15.518Z,999.63
2017-02-02T21:15:24.371Z,999.62
2017-02-02T21:16:33.637Z,999.64
2017-02-02T21:17:43.273Z,999.6
2017-02-02T21:18:52.107Z,999.56
2017-02-02T21:20:00.892Z,999.54
2017-02-02T21:21:10.060Z,999.51
2017-02-02T21:22:18.774Z,999.5
2017-02-02T21:23:27.552Z,999.51
2017-02-02T21:24:36.345Z,999.52
2017-02-02T21:25:45.996Z,999.49
2017-02-02T21:26:55.268Z,999.51
2017-02-02T21:28:04.130Z,999.48
2017-02-02T21:29:13.375Z,999.51
2017-02-02T21:30:22.609Z,999.46
2017-02-02T21:31:31.453Z,999.48
2017-02-02T21:32:40.299Z,999.47
2017-02-02T21:33:49.046Z,999.44
2017-02-02T21:34:57.786Z,999.43
2017-02-02T21:36:06.887Z,999.42
2017-02-02T21:37:15.606Z,999.38
2017-02-02T21:38:24.724Z,999.35
2017-02-02T21:39:33.417Z,999.37
2017-02-02T21:40:42.133Z,999.38
2017-02-02T21:41:51.233Z,999.37
2017-02-02T21:42:59.919Z,999.35
2017-02-02T21:44:08.672Z,999.38
2017-02-02T21:45:17.438Z,999.35
2017-02-02T21:46:26.155Z,999.36
2017-02-02T21:47:35.269Z,999.33
2017-02-02T21:48:44.786Z,999.32
2017-02-02T21:49:53.508Z,999.29
2017-02-02T21:51:02.662Z,999.29
2017-02-02T21:52:11.740Z,999.33
2017-02-02T21:53:20.848Z,999.3
2017-02-02T21:54:29.552Z,999.31
2017-02-02T21:55:38.250Z,999.26
2017-02-02T21:56:47.350Z,999.26
2017-02-02T21:57:56.473Z,999.23
2017-02-02T21:59:05.569Z,999.21
2017-02-02T22:00:14.750Z,999.24
2017-02-02T22:01:23.454Z,999.2
2017-02-02T22:02:32.149Z,999.18
2017-02-02T22:03:40.966Z,999.21
2017-02-02T22:04:49.649Z,999.19
2017-02-02T22:05:58.349Z,999.15
2017-02-02T22:07:07.061Z,999.14
2017-02-02T22:08:15.756Z,999.11
2017-02-02T22:09:24.847Z,999.14
2017-02-02T22:10:33.591Z,999.14
2017-02-02T22:11:42.283Z,999.1
2017-02-02T22:12:51.379Z,999.14
2017-02-02T22:14:00.085Z,999.14
2017-02-02T22:15:08.786Z,999.13
2017-02-02T22:16:17.485Z,999.13
2017-02-02T22:17:26.190Z,999.1
2017-02-02T22:18:34.881Z,999.12
2017-02-02T22:19:43.597Z,999.12
2017-02-02T22:20:52.291Z,999.1
2017-02-02T22:22:01.378Z,999.07
2017-02-02T22:23:10.089Z,999.06
2017-02-02T22:24:19.576Z,999.05
2017-02-02T22:25:28.296Z,999.02
2017-02-02T22:26:37.003Z,999
2017-02-02T22:27:45.708Z,999
2017-02-02T22:28:54.399Z,999
2017-02-02T22:30:03.506Z,998.98
2017-02-02T22:31:12.603Z,998.98
2017-02-02T22:32:21.304Z,998.98
2017-02-02T22:33:29.996Z,998.98
2017-02-02T22:34:38.673Z,998.93
2017-02-02T22:35:47.387Z,998.94
2017-02-02T22:36:56.087Z,998.91
2017-02-02T22:38:04.783Z,998.89
2017-02-02T22:39:13.481Z,998.86
2017-02-02T22:40:22.186Z,998.86
2017-02-02T22:41:31.268Z,998.85
2017-02-02T22:42:39.966Z,998.89
2017-02-02T22:43:48.677Z,998.86
2017-02-02T22:44:57.375Z,998.86
2017-02-02T22:46:06.079Z,998.89
2017-02-02T22:47:14.783Z,998.89
2017-02-02T22:48:23.866Z,998.94
2017-02-02T22:49:32.549Z,999
2017-02-02T22:50:41.665Z,998.95
2017-02-02T22:51:50.352Z,998.94
2017-02-02T22:52:59.046Z,998.91
2017-02-02T22:54:07.754Z,998.89
2017-02-02T22:55:16.456Z,998.92
2017-02-02T22:56:25.140Z,998.86
2017-02-02T22:57:34.241Z,998.87
2017-02-02T22:58:42.944Z,998.86
2017-02-02T22:59:52.015Z,998.84
2017-02-02T23:01:00.728Z,998.86
2017-02-02T23:02:09.408Z,998.84
2017-02-02T23:03:18.118Z,998.88
2017-02-02T23:04:32.643Z,998.86
2017-02-02T23:05:41.840Z,998.88
2017-02-02T23:06:50.923Z,998.87
2017-02-02T23:07:59.621Z,998.88
2017-02-02T23:09:09.096Z,998.95
2017-02-02T23:10:18.185Z,998.87
2017-02-02T23:11:26.899Z,998.86
2017-02-02T23:12:35.986Z,998.86
2017-02-02T23:13:44.697Z,998.87
2017-02-02T23:14:53.406Z,998.83
2017-02-02T23:16:02.100Z,998.8
2017-02-02T23:17:11.214Z,998.81
2017-02-02T23:18:19.897Z,998.82
2017-02-02T23:19:28.597Z,998.79
2017-02-02T23:20:38.095Z,998.78
2017-02-02T23:21:47.181Z,998.78
2017-02-02T23:22:56.663Z,998.78
2017-02-02T23:24:05.765Z,998.74
2017-02-02T23:25:14.850Z,998.75
2017-02-02T23:26:23.540Z,998.73
2017-02-02T23:27:32.247Z,998.75
2017-02-02T23:28:40.947Z,998.76
2017-02-02T23:29:49.628Z,998.72
2017-02-02T23:30:59.127Z,998.71
2017-02-02T23:32:08.227Z,998.68
2017-02-02T23:33:17.337Z,998.66
2017-02-02T23:34:26.417Z,998.64
2017-02-02T23:35:35.110Z,998.63
2017-02-02T23:36:44.214Z,998.6
2017-02-02T23:37:52.918Z,998.61
2017-02-02T23:39:02.387Z,998.64
2017-02-02T23:40:11.097Z,998.65
2017-02-02T23:41:19.799Z,998.63
2017-02-02T23:42:28.865Z,998.62
2017-02-02T23:43:37.568Z,998.6
2017-02-02T23:44:46.272Z,998.58
2017-02-02T23:45:55.368Z,998.58
2017-02-02T23:47:04.062Z,998.6
2017-02-02T23:48:12.750Z,998.56
2017-02-02T23:49:21.453Z,998.56
2017-02-02T23:50:30.150Z,998.53
2017-02-02T23:51:38.825Z,998.51
2017-02-02T23:52:47.526Z,998.52
2017-02-02T23:53:56.222Z,998.56
2017-02-02T23:55:04.911Z,998.51
2017-02-02T23:56:13.611Z,998.56
2017-02-02T23:57:22.312Z,998.6
2017-02-02T23:58:30.994Z,998.58
2017-02-02T23:59:39.681Z,998.57
